createdAt,value
2023-01-26T00:02:21.621Z,4.30
2023-01-26T00:04:49.751Z,4.30
2023-01-26T00:07:17.786Z,4.30
2023-01-26T00:09:45.877Z,4.20
2023-01-26T00:12:15.351Z,4.20
2023-01-26T00:14:52.331Z,4.20
2023-01-26T00:17:28.002Z,4.20
2023-01-26T00:19:57.600Z,4.20
2023-01-26T00:22:26.976Z,4.10
2023-01-26T00:24:55.055Z,4.10
2023-01-26T00:27:24.528Z,4.10
2023-01-26T00:29:52.617Z,4.10
2023-01-26T00:32:20.680Z,4.20
2023-01-26T00:34:48.786Z,4.20
2023-01-26T00:37:16.825Z,4.20
2023-01-26T00:39:44.899Z,4.20
2023-01-26T00:42:13.956Z,4.10
2023-01-26T00:44:44.348Z,4.10
2023-01-26T00:47:13.830Z,4.10
2023-01-26T00:49:41.865Z,4.10
2023-01-26T00:52:09.939Z,4.10
2023-01-26T00:54:38.034Z,4.10
2023-01-26T00:57:06.267Z,4.10
2023-01-26T00:59:34.412Z,4.10
2023-01-26T01:02:04.208Z,4.10
2023-01-26T01:04:32.691Z,4.20
2023-01-26T01:07:00.729Z,4.20
2023-01-26T01:09:28.879Z,4.20
2023-01-26T01:11:56.906Z,4.20
2023-01-26T01:14:25.016Z,4.30
2023-01-26T01:16:53.449Z,4.30
2023-01-26T01:19:22.903Z,4.30
2023-01-26T01:21:51.003Z,4.40
2023-01-26T01:24:19.144Z,4.40
2023-01-26T01:26:47.228Z,4.40
2023-01-26T01:29:15.830Z,4.40
2023-01-26T01:31:44.298Z,4.50
2023-01-26T01:34:12.432Z,4.50
2023-01-26T01:36:41.836Z,4.50
2023-01-26T01:39:10.011Z,4.50
2023-01-26T01:41:38.060Z,4.50
2023-01-26T01:44:14.273Z,4.50
2023-01-26T01:46:46.724Z,4.60
2023-01-26T01:49:20.400Z,4.60
2023-01-26T01:51:54.130Z,4.60
2023-01-26T01:54:28.021Z,4.60
2023-01-26T01:56:59.505Z,4.60
2023-01-26T01:59:27.862Z,4.60
2023-01-26T02:01:57.686Z,4.60
2023-01-26T02:04:27.322Z,4.60
2023-01-26T02:06:59.553Z,4.60
2023-01-26T02:09:50.298Z,4.60
2023-01-26T02:12:21.784Z,4.60
2023-01-26T02:14:51.386Z,4.60
2023-01-26T02:17:19.670Z,4.50
2023-01-26T02:19:57.722Z,4.50
2023-01-26T02:22:42.238Z,4.50
2023-01-26T02:25:19.917Z,4.50
2023-01-26T02:27:49.746Z,4.40
2023-01-26T02:30:19.264Z,4.40
2023-01-26T02:32:47.847Z,4.40
2023-01-26T02:35:15.900Z,4.30
2023-01-26T02:37:43.936Z,4.30
2023-01-26T02:40:21.250Z,4.30
2023-01-26T02:42:49.676Z,4.30
2023-01-26T02:45:18.708Z,4.20
2023-01-26T02:47:46.741Z,4.20
2023-01-26T02:50:14.608Z,4.20
2023-01-26T02:52:42.842Z,4.20
2023-01-26T02:55:22.440Z,4.10
2023-01-26T02:57:54.945Z,4.10
2023-01-26T03:00:25.283Z,4.10
2023-01-26T03:02:56.386Z,4.10
2023-01-26T03:05:24.512Z,4.10
2023-01-26T03:07:52.594Z,4.10
2023-01-26T03:10:22.180Z,4.10
2023-01-26T03:12:52.141Z,4.10
2023-01-26T03:15:38.139Z,4.00
2023-01-26T03:18:30.802Z,4.10
2023-01-26T03:21:18.193Z,4.10
2023-01-26T03:24:03.885Z,4.10
2023-01-26T03:26:49.225Z,4.10
2023-01-26T03:29:18.904Z,4.00
2023-01-26T03:31:47.240Z,4.00
2023-01-26T03:34:15.344Z,4.00
2023-01-26T03:36:43.430Z,4.00
2023-01-26T03:39:31.684Z,4.00
2023-01-26T03:42:17.060Z,3.90
2023-01-26T03:45:04.671Z,3.90
2023-01-26T03:47:50.485Z,3.90
2023-01-26T03:50:36.548Z,3.80
2023-01-26T03:53:21.867Z,3.80
2023-01-26T03:56:07.515Z,3.80
2023-01-26T03:58:35.612Z,3.80
2023-01-26T04:01:06.950Z,3.80
2023-01-26T04:03:52.488Z,3.80
2023-01-26T04:06:37.959Z,3.90
2023-01-26T04:09:06.247Z,3.90
2023-01-26T04:11:34.260Z,3.90
2023-01-26T04:14:19.804Z,4.00
2023-01-26T04:17:06.509Z,4.00
2023-01-26T04:19:52.009Z,4.10
2023-01-26T04:22:20.043Z,4.10
2023-01-26T04:24:48.149Z,4.10
2023-01-26T04:27:16.208Z,4.10
2023-01-26T04:29:44.253Z,4.20
2023-01-26T04:32:13.628Z,4.20
2023-01-26T04:34:41.801Z,4.20
2023-01-26T04:37:10.444Z,4.20
2023-01-26T04:39:38.525Z,4.20
2023-01-26T04:42:06.642Z,4.20
2023-01-26T04:44:34.703Z,4.20
2023-01-26T04:47:02.796Z,4.30
2023-01-26T04:49:32.235Z,4.30
2023-01-26T04:52:00.303Z,4.30
2023-01-26T04:54:28.445Z,4.30
2023-01-26T04:56:56.485Z,4.30
2023-01-26T04:59:24.525Z,4.40
2023-01-26T05:01:52.541Z,4.40
2023-01-26T05:04:20.665Z,4.40
2023-01-26T05:06:50.104Z,4.40
2023-01-26T05:09:18.406Z,4.40
2023-01-26T05:11:46.465Z,4.40
2023-01-26T05:14:15.328Z,4.40
2023-01-26T05:16:43.477Z,4.40
2023-01-26T05:19:11.747Z,4.40
2023-01-26T05:21:39.783Z,4.40
2023-01-26T05:24:09.942Z,4.40
2023-01-26T05:26:37.998Z,4.40
2023-01-26T05:29:07.018Z,4.40
2023-01-26T05:31:35.119Z,4.30
2023-01-26T05:34:03.193Z,4.30
2023-01-26T05:36:31.213Z,4.30
2023-01-26T05:38:59.338Z,4.20
2023-01-26T05:41:28.754Z,4.20
2023-01-26T05:43:56.851Z,4.20
2023-01-26T05:46:24.967Z,4.20
2023-01-26T05:48:54.049Z,4.10
2023-01-26T05:51:22.081Z,4.10
2023-01-26T05:53:50.174Z,4.10
2023-01-26T05:56:18.209Z,4.10
2023-01-26T05:58:47.624Z,4.10
2023-01-26T06:01:15.661Z,4.10
2023-01-26T06:03:43.715Z,4.10
2023-01-26T06:06:11.733Z,4.20
2023-01-26T06:08:39.829Z,4.20
2023-01-26T06:11:07.840Z,4.20
2023-01-26T06:13:35.931Z,4.20
2023-01-26T06:16:05.675Z,4.20
2023-01-26T06:18:33.855Z,4.20
2023-01-26T06:21:01.969Z,4.10
2023-01-26T06:23:30.724Z,4.10
2023-01-26T06:26:00.249Z,4.10
2023-01-26T06:28:28.459Z,4.00
2023-01-26T06:31:00.976Z,4.00
2023-01-26T06:33:30.677Z,3.90
2023-01-26T06:36:02.720Z,3.90
2023-01-26T06:38:31.183Z,3.90
2023-01-26T06:41:01.148Z,3.90
2023-01-26T06:43:29.190Z,3.80
2023-01-26T06:45:57.851Z,3.80
2023-01-26T06:48:26.987Z,3.80
2023-01-26T06:50:58.464Z,3.80
2023-01-26T06:53:30.987Z,3.80
2023-01-26T06:55:59.000Z,3.70
2023-01-26T06:58:27.130Z,3.70
2023-01-26T07:00:56.925Z,3.70
2023-01-26T07:03:25.454Z,3.70
2023-01-26T07:05:53.742Z,3.70
2023-01-26T07:08:23.291Z,3.60
2023-01-26T07:10:51.909Z,3.70
2023-01-26T07:13:20.005Z,3.70
2023-01-26T07:15:48.037Z,3.70
2023-01-26T07:18:16.292Z,3.70
2023-01-26T07:20:44.389Z,3.70
2023-01-26T07:23:12.493Z,3.80
2023-01-26T07:25:44.819Z,3.80
2023-01-26T07:28:12.933Z,3.80
2023-01-26T07:30:40.990Z,3.80
2023-01-26T07:33:09.096Z,3.80
2023-01-26T07:35:37.238Z,3.80
2023-01-26T07:38:05.729Z,3.80
2023-01-26T07:40:34.301Z,3.80
2023-01-26T07:43:03.732Z,3.90
2023-01-26T07:45:32.145Z,3.90
2023-01-26T07:48:00.156Z,3.90
2023-01-26T07:50:28.304Z,3.90
2023-01-26T07:52:56.354Z,3.90
2023-01-26T07:55:26.309Z,3.90
2023-01-26T07:57:54.383Z,3.90
2023-01-26T08:00:24.382Z,4.00
2023-01-26T08:02:52.630Z,4.00
2023-01-26T08:05:20.803Z,4.10
2023-01-26T08:07:49.189Z,4.20
2023-01-26T08:10:18.244Z,4.30
2023-01-26T08:12:46.278Z,4.30
2023-01-26T08:15:14.477Z,4.40
2023-01-26T08:17:43.923Z,4.50
2023-01-26T08:20:14.295Z,4.60
2023-01-26T08:22:42.404Z,4.70
2023-01-26T08:25:11.308Z,4.70
2023-01-26T08:27:39.333Z,4.80
2023-01-26T08:30:09.171Z,4.90
2023-01-26T08:32:37.821Z,4.90
2023-01-26T08:35:08.494Z,5.00
2023-01-26T08:37:36.546Z,5.10
2023-01-26T08:40:04.870Z,5.10
2023-01-26T08:42:33.524Z,5.20
2023-01-26T08:45:01.624Z,5.30
2023-01-26T08:47:29.719Z,5.40
2023-01-26T08:49:57.779Z,5.40
2023-01-26T08:52:27.191Z,5.50
2023-01-26T08:54:55.259Z,5.50
2023-01-26T08:57:23.298Z,5.60
2023-01-26T08:59:51.400Z,5.60
2023-01-26T09:02:19.528Z,5.60
2023-01-26T09:04:48.366Z,5.70
2023-01-26T09:07:16.642Z,5.80
2023-01-26T09:09:46.061Z,5.90
2023-01-26T09:12:14.072Z,5.90
2023-01-26T09:14:42.577Z,6.00
2023-01-26T09:17:10.608Z,6.10
2023-01-26T09:19:38.976Z,6.20
2023-01-26T09:22:07.012Z,6.20
2023-01-26T09:24:35.114Z,6.30
2023-01-26T09:27:04.681Z,6.30
2023-01-26T09:29:32.776Z,6.40
2023-01-26T09:32:00.861Z,6.40
2023-01-26T09:34:29.124Z,6.50
2023-01-26T09:36:57.161Z,6.50
2023-01-26T09:39:25.285Z,6.60
2023-01-26T09:42:02.601Z,6.60
2023-01-26T09:44:41.782Z,6.70
2023-01-26T09:47:20.711Z,6.70
2023-01-26T09:49:52.580Z,6.80
2023-01-26T09:52:27.453Z,6.80
2023-01-26T09:54:58.641Z,6.90
2023-01-26T09:57:31.945Z,6.90
2023-01-26T10:00:07.427Z,6.90
2023-01-26T10:02:46.554Z,6.90
2023-01-26T10:05:19.641Z,6.90
2023-01-26T10:07:47.882Z,6.90
2023-01-26T10:10:22.942Z,7.00
2023-01-26T10:12:52.452Z,7.00
2023-01-26T10:15:31.183Z,7.00
2023-01-26T10:18:05.865Z,7.00
2023-01-26T10:20:36.440Z,7.00
2023-01-26T10:23:08.736Z,7.00
2023-01-26T10:25:38.518Z,7.10
2023-01-26T10:28:15.143Z,7.10
2023-01-26T10:30:46.459Z,7.10
2023-01-26T10:33:18.582Z,7.20
2023-01-26T10:35:47.814Z,7.30
2023-01-26T10:38:41.827Z,7.40
2023-01-26T10:41:29.394Z,7.50
2023-01-26T10:43:59.337Z,7.60
2023-01-26T10:46:38.020Z,7.60
2023-01-26T10:49:18.415Z,7.70
2023-01-26T10:52:05.520Z,7.80
2023-01-26T10:54:35.433Z,7.80
2023-01-26T10:57:07.212Z,7.80
2023-01-26T10:59:39.935Z,7.90
2023-01-26T11:02:23.638Z,7.90
2023-01-26T11:05:22.807Z,7.90
2023-01-26T11:07:54.265Z,7.90
2023-01-26T11:10:27.097Z,7.90
2023-01-26T11:13:16.597Z,7.90
2023-01-26T11:15:47.698Z,7.90
2023-01-26T11:18:31.099Z,8.00
2023-01-26T11:21:01.917Z,8.20
2023-01-26T11:23:42.496Z,8.50
2023-01-26T11:26:36.256Z,8.80
2023-01-26T11:29:24.744Z,9.00
2023-01-26T11:32:00.645Z,9.30
2023-01-26T11:34:43.084Z,9.70
2023-01-26T11:37:36.357Z,10.00
2023-01-26T11:40:25.739Z,10.20
2023-01-26T11:43:08.574Z,10.40
2023-01-26T11:45:53.272Z,10.40
2023-01-26T11:48:29.802Z,10.40
2023-01-26T11:51:08.061Z,10.30
2023-01-26T11:53:53.982Z,10.30
2023-01-26T11:56:35.224Z,10.40
2023-01-26T11:59:08.472Z,10.60
2023-01-26T12:01:42.491Z,10.70
2023-01-26T12:04:17.635Z,10.90
2023-01-26T12:06:52.443Z,11.30
2023-01-26T12:09:24.485Z,11.80
2023-01-26T12:11:59.816Z,12.20
2023-01-26T12:14:32.699Z,12.60
2023-01-26T12:17:21.718Z,13.00
2023-01-26T12:19:55.840Z,13.70
2023-01-26T12:22:32.126Z,14.70
2023-01-26T12:25:19.111Z,15.20
2023-01-26T12:27:54.249Z,15.30
2023-01-26T12:32:54.534Z,16.50
2023-01-26T12:35:33.506Z,16.30
2023-01-26T12:38:17.671Z,15.70
2023-01-26T12:40:58.915Z,15.20
2023-01-26T12:43:42.424Z,14.50
2023-01-26T12:46:11.304Z,14.00
2023-01-26T12:48:46.249Z,13.50
2023-01-26T12:51:21.289Z,13.10
2023-01-26T12:53:58.567Z,12.70
2023-01-26T12:56:32.293Z,12.40
2023-01-26T12:59:02.148Z,12.00
2023-01-26T13:01:40.392Z,11.70
2023-01-26T13:04:11.265Z,11.50
2023-01-26T13:06:39.350Z,11.30
2023-01-26T13:09:22.701Z,11.10
2023-01-26T13:11:53.451Z,11.00
2023-01-26T13:14:41.153Z,10.80
2023-01-26T13:17:51.966Z,10.80
2023-01-26T13:20:45.577Z,10.70
2023-01-26T13:23:42.120Z,10.70
2023-01-26T13:26:26.590Z,10.70
2023-01-26T13:29:32.697Z,10.70
2023-01-26T13:32:02.984Z,10.70
2023-01-26T13:34:36.941Z,10.60
2023-01-26T13:37:11.006Z,10.50
2023-01-26T13:39:45.345Z,10.40
2023-01-26T13:42:21.412Z,10.30
2023-01-26T13:44:57.149Z,10.30
2023-01-26T13:47:29.509Z,10.30
2023-01-26T13:49:57.703Z,10.40
2023-01-26T13:52:27.532Z,10.50
2023-01-26T13:54:57.948Z,10.40
2023-01-26T13:57:29.884Z,10.40
2023-01-26T14:00:00.423Z,10.20
2023-01-26T14:02:31.753Z,10.20
2023-01-26T14:05:00.695Z,10.10
2023-01-26T14:07:32.463Z,10.20
2023-01-26T14:10:02.426Z,10.30
2023-01-26T14:12:35.395Z,10.40
2023-01-26T14:15:07.302Z,10.40
2023-01-26T14:17:37.688Z,10.30
2023-01-26T14:20:25.410Z,10.30
2023-01-26T14:23:14.567Z,10.20
2023-01-26T14:25:46.632Z,10.10
2023-01-26T14:28:18.108Z,10.00
2023-01-26T14:30:53.107Z,9.90
2023-01-26T14:33:23.216Z,9.80
2023-01-26T14:35:58.029Z,9.70
2023-01-26T14:38:28.764Z,9.60
2023-01-26T14:40:59.253Z,9.50
2023-01-26T14:43:29.080Z,9.50
2023-01-26T14:46:01.723Z,9.50
2023-01-26T14:48:36.019Z,9.40
2023-01-26T14:51:06.980Z,9.50
2023-01-26T14:53:35.201Z,9.70
2023-01-26T14:56:03.256Z,10.00
2023-01-26T14:58:34.680Z,10.30
2023-01-26T15:01:04.756Z,10.50
2023-01-26T15:03:36.809Z,10.60
2023-01-26T15:06:08.230Z,10.50
2023-01-26T15:08:37.408Z,10.50
2023-01-26T15:11:23.169Z,10.50
2023-01-26T15:13:55.651Z,10.50
2023-01-26T15:16:25.625Z,10.60
2023-01-26T15:19:01.707Z,10.70
2023-01-26T15:21:34.741Z,10.80
2023-01-26T15:24:04.684Z,10.70
2023-01-26T15:26:35.313Z,10.60
2023-01-26T15:29:07.688Z,10.40
2023-01-26T15:31:37.985Z,10.20
2023-01-26T15:34:06.711Z,10.00
2023-01-26T15:36:36.713Z,9.80
2023-01-26T15:39:13.782Z,9.70
2023-01-26T15:41:42.182Z,9.60
2023-01-26T15:44:17.431Z,9.40
2023-01-26T15:46:45.862Z,9.40
2023-01-26T15:49:14.497Z,9.20
2023-01-26T15:51:42.765Z,9.10
2023-01-26T15:54:12.662Z,9.00
2023-01-26T15:56:40.699Z,8.90
2023-01-26T15:59:08.864Z,8.80
2023-01-26T16:01:38.294Z,8.70
2023-01-26T16:04:06.461Z,8.60
2023-01-26T16:06:35.902Z,8.60
2023-01-26T16:09:04.051Z,8.40
2023-01-26T16:11:35.752Z,8.40
2023-01-26T16:14:04.506Z,8.30
2023-01-26T16:16:33.577Z,8.20
2023-01-26T16:19:03.047Z,8.20
2023-01-26T16:21:35.027Z,8.00
2023-01-26T16:24:03.683Z,8.00
2023-01-26T16:26:32.688Z,7.90
2023-01-26T16:29:01.164Z,7.80
2023-01-26T16:31:31.650Z,7.70
2023-01-26T16:34:01.046Z,7.60
2023-01-26T16:36:30.690Z,7.50
2023-01-26T16:38:58.742Z,7.40
2023-01-26T16:41:28.776Z,7.30
2023-01-26T16:43:58.342Z,7.20
2023-01-26T16:46:26.645Z,7.10
2023-01-26T16:48:54.824Z,7.00
2023-01-26T16:51:26.955Z,6.90
2023-01-26T16:53:56.952Z,6.80
2023-01-26T16:56:26.066Z,6.80
2023-01-26T16:58:54.133Z,6.70
2023-01-26T17:01:25.158Z,6.60
2023-01-26T17:03:53.321Z,6.50
2023-01-26T17:06:21.762Z,6.50
2023-01-26T17:08:50.650Z,6.40
2023-01-26T17:11:22.446Z,6.40
2023-01-26T17:13:51.315Z,6.30
2023-01-26T17:16:21.075Z,6.30
2023-01-26T17:18:50.101Z,6.30
2023-01-26T17:21:19.879Z,6.20
2023-01-26T17:23:50.126Z,6.20
2023-01-26T17:26:20.125Z,6.20
2023-01-26T17:28:49.933Z,6.10
2023-01-26T17:31:20.007Z,6.10
2023-01-26T17:33:50.276Z,6.00
2023-01-26T17:36:19.655Z,6.00
2023-01-26T17:38:48.725Z,5.90
2023-01-26T17:41:17.615Z,5.90
2023-01-26T17:43:47.973Z,5.80
2023-01-26T17:46:17.586Z,5.80
2023-01-26T17:48:46.747Z,5.70
2023-01-26T17:51:17.525Z,5.70
2023-01-26T17:53:47.087Z,5.60
2023-01-26T17:56:17.581Z,5.60
2023-01-26T17:58:50.781Z,5.60
2023-01-26T18:01:19.618Z,5.50
2023-01-26T18:03:47.687Z,5.50
2023-01-26T18:06:15.980Z,5.50
2023-01-26T18:08:44.136Z,5.40
2023-01-26T18:11:14.335Z,5.40
2023-01-26T18:13:43.000Z,5.40
2023-01-26T18:16:16.688Z,5.40
2023-01-26T18:18:45.333Z,5.30
2023-01-26T18:21:15.344Z,5.30
2023-01-26T18:23:45.988Z,5.30
2023-01-26T18:26:14.875Z,5.30
2023-01-26T18:28:43.334Z,5.20
2023-01-26T18:31:15.761Z,5.20
2023-01-26T18:33:44.132Z,5.20
2023-01-26T18:36:14.455Z,5.20
2023-01-26T18:38:44.184Z,5.10
2023-01-26T18:41:12.727Z,5.10
2023-01-26T18:43:40.967Z,5.10
2023-01-26T18:46:11.287Z,5.10
2023-01-26T18:48:41.189Z,5.00
2023-01-26T18:51:09.762Z,5.00
2023-01-26T18:53:39.594Z,4.90
2023-01-26T18:56:10.419Z,4.90
2023-01-26T18:58:39.303Z,4.90
2023-01-26T19:01:11.352Z,4.90
2023-01-26T19:03:42.577Z,4.80
2023-01-26T19:06:10.859Z,4.80
2023-01-26T19:08:39.821Z,4.80
2023-01-26T19:11:09.174Z,4.80
2023-01-26T19:13:41.942Z,4.80
2023-01-26T19:16:10.272Z,4.80
2023-01-26T19:18:38.342Z,4.80
2023-01-26T19:21:07.986Z,4.80
2023-01-26T19:23:37.540Z,4.80
2023-01-26T19:26:11.590Z,4.90
2023-01-26T19:28:41.297Z,4.90
2023-01-26T19:31:10.053Z,4.90
2023-01-26T19:33:38.658Z,5.00
2023-01-26T19:36:09.210Z,5.00
2023-01-26T19:38:39.722Z,5.00
2023-01-26T19:41:07.874Z,5.00
2023-01-26T19:43:36.150Z,5.10
2023-01-26T19:46:05.628Z,5.10
2023-01-26T19:48:33.741Z,5.10
2023-01-26T19:51:03.338Z,5.10
2023-01-26T19:53:33.410Z,5.10
2023-01-26T19:56:05.774Z,5.20
2023-01-26T19:58:33.933Z,5.20
2023-01-26T20:01:03.186Z,5.20
2023-01-26T20:03:31.288Z,5.20
2023-01-26T20:05:59.450Z,5.30
2023-01-26T20:08:28.212Z,5.30
2023-01-26T20:11:03.640Z,5.30
2023-01-26T20:13:31.970Z,5.30
2023-01-26T20:16:00.023Z,5.30
2023-01-26T20:18:28.198Z,5.30
2023-01-26T20:20:58.279Z,5.40
2023-01-26T20:23:28.758Z,5.40
2023-01-26T20:26:04.072Z,5.40
2023-01-26T20:28:32.130Z,5.40
2023-01-26T20:31:06.464Z,5.40
2023-01-26T20:33:35.145Z,5.40
2023-01-26T20:36:07.684Z,5.40
2023-01-26T20:38:36.013Z,5.40
2023-01-26T20:41:09.002Z,5.40
2023-01-26T20:43:39.472Z,5.40
2023-01-26T20:46:11.154Z,5.40
2023-01-26T20:48:39.436Z,5.40
2023-01-26T20:51:12.061Z,5.40
2023-01-26T20:53:40.238Z,5.40
2023-01-26T20:56:11.773Z,5.30
2023-01-26T20:58:42.533Z,5.30
2023-01-26T21:01:12.287Z,5.30
2023-01-26T21:03:40.648Z,5.20
2023-01-26T21:06:10.478Z,5.20
2023-01-26T21:08:38.889Z,5.20
2023-01-26T21:11:09.932Z,5.10
2023-01-26T21:13:41.179Z,5.10
2023-01-26T21:16:10.339Z,5.10
2023-01-26T21:18:38.388Z,5.00
2023-01-26T21:21:08.193Z,5.00
2023-01-26T21:23:36.815Z,5.00
2023-01-26T21:26:06.931Z,4.90
2023-01-26T21:28:36.411Z,4.90
2023-01-26T21:31:06.419Z,4.80
2023-01-26T21:33:37.389Z,4.80
2023-01-26T21:36:07.053Z,4.70
2023-01-26T21:38:38.749Z,4.70
2023-01-26T21:41:29.506Z,4.60
2023-01-26T21:43:59.994Z,4.60
2023-01-26T21:46:28.844Z,4.50
2023-01-26T21:48:57.126Z,4.50
2023-01-26T21:51:58.243Z,4.50
2023-01-26T21:54:26.805Z,4.40
2023-01-26T21:56:54.882Z,4.40
2023-01-26T21:59:23.602Z,4.30
2023-01-26T22:01:53.472Z,4.30
2023-01-26T22:04:23.524Z,4.30
2023-01-26T22:06:52.277Z,4.20
2023-01-26T22:09:21.380Z,4.20
2023-01-26T22:11:50.494Z,4.10
2023-01-26T22:14:21.085Z,4.10
2023-01-26T22:16:50.586Z,4.10
2023-01-26T22:19:19.137Z,4.00
2023-01-26T22:21:47.303Z,4.00
2023-01-26T22:24:17.939Z,4.00
2023-01-26T22:26:46.043Z,3.90
2023-01-26T22:29:14.672Z,3.90
2023-01-26T22:31:42.806Z,3.90
2023-01-26T22:34:12.480Z,3.90
2023-01-26T22:36:41.344Z,3.80
2023-01-26T22:39:10.087Z,3.80
2023-01-26T22:41:38.142Z,3.80
2023-01-26T22:44:06.279Z,3.70
2023-01-26T22:46:35.123Z,3.70
2023-01-26T22:49:04.666Z,3.70
2023-01-26T22:51:37.062Z,3.60
2023-01-26T22:54:06.090Z,3.60
2023-01-26T22:56:34.568Z,3.60
2023-01-26T22:59:03.037Z,3.50
2023-01-26T23:01:33.102Z,3.50
2023-01-26T23:04:02.341Z,3.50
2023-01-26T23:06:30.526Z,3.40
2023-01-26T23:09:01.156Z,3.40
2023-01-26T23:11:30.146Z,3.40
2023-01-26T23:14:00.060Z,3.40
2023-01-26T23:16:29.049Z,3.40
2023-01-26T23:18:59.340Z,3.40
2023-01-26T23:21:30.733Z,3.40
2023-01-26T23:24:00.243Z,3.40
2023-01-26T23:26:28.477Z,3.40
2023-01-26T23:28:56.593Z,3.30
2023-01-26T23:31:24.858Z,3.30
2023-01-26T23:33:52.880Z,3.30
2023-01-26T23:36:21.755Z,3.30
2023-01-26T23:38:49.873Z,3.30
2023-01-26T23:41:19.512Z,3.30
2023-01-26T23:43:47.613Z,3.30
2023-01-26T23:46:15.742Z,3.30
2023-01-26T23:48:43.783Z,3.30
2023-01-26T23:51:13.357Z,3.30
2023-01-26T23:53:41.630Z,3.30
2023-01-26T23:56:14.822Z,3.30
2023-01-26T23:58:45.728Z,3.40
